sensor_id;sensor_type;location;lat;lon;timestamp;P1;durP1;ratioP1;P2;durP2;ratioP2
1957;SDS011;979;51.076;13.748;2022-09-03T00:00:36;15.83;;;15.23;;
1957;SDS011;979;51.076;13.748;2022-09-03T00:03:11;15.97;;;15.37;;
1957;SDS011;979;51.076;13.748;2022-09-03T00:05:47;15.73;;;14.93;;
1957;SDS011;979;51.076;13.748;2022-09-03T00:08:22;16.27;;;15.67;;
1957;SDS011;979;51.076;13.748;2022-09-03T00:11:01;16.00;;;15.50;;
1957;SDS011;979;51.076;13.748;2022-09-03T00:13:37;16.10;;;15.60;;
1957;SDS011;979;51.076;13.748;2022-09-03T00:16:11;16.00;;;15.50;;
1957;SDS011;979;51.076;13.748;2022-09-03T00:18:45;17.13;;;16.43;;
1957;SDS011;979;51.076;13.748;2022-09-03T00:21:20;17.77;;;16.97;;
1957;SDS011;979;51.076;13.748;2022-09-03T00:23:55;17.80;;;17.10;;
1957;SDS011;979;51.076;13.748;2022-09-03T00:26:27;17.60;;;16.80;;
1957;SDS011;979;51.076;13.748;2022-09-03T00:29:01;18.20;;;17.27;;
1957;SDS011;979;51.076;13.748;2022-09-03T00:31:34;18.50;;;17.60;;
1957;SDS011;979;51.076;13.748;2022-09-03T00:34:06;18.00;;;17.07;;
1957;SDS011;979;51.076;13.748;2022-09-03T00:36:45;17.30;;;16.50;;
1957;SDS011;979;51.076;13.748;2022-09-03T00:39:14;17.03;;;16.30;;
1957;SDS011;979;51.076;13.748;2022-09-03T00:41:47;17.20;;;16.50;;
1957;SDS011;979;51.076;13.748;2022-09-03T00:47:23;17.10;;;16.40;;
1957;SDS011;979;51.076;13.748;2022-09-03T00:50:02;17.27;;;16.47;;
1957;SDS011;979;51.076;13.748;2022-09-03T00:52:43;16.10;;;15.50;;
1957;SDS011;979;51.076;13.748;2022-09-03T00:55:25;16.33;;;15.83;;
1957;SDS011;979;51.076;13.748;2022-09-03T00:58:10;17.67;;;16.87;;
1957;SDS011;979;51.076;13.748;2022-09-03T01:00:51;16.20;;;15.50;;
1957;SDS011;979;51.076;13.748;2022-09-03T01:03:22;17.87;;;17.17;;
1957;SDS011;979;51.076;13.748;2022-09-03T01:06:05;17.70;;;17.00;;
1957;SDS011;979;51.076;13.748;2022-09-03T01:08:50;16.93;;;16.30;;
1957;SDS011;979;51.076;13.748;2022-09-03T01:11:37;17.97;;;17.10;;
1957;SDS011;979;51.076;13.748;2022-09-03T01:14:20;18.20;;;17.10;;
1957;SDS011;979;51.076;13.748;2022-09-03T01:16:55;17.00;;;16.23;;
1957;SDS011;979;51.076;13.748;2022-09-03T01:19:34;17.50;;;16.80;;
1957;SDS011;979;51.076;13.748;2022-09-03T01:22:40;17.20;;;16.53;;
1957;SDS011;979;51.076;13.748;2022-09-03T01:25:40;16.77;;;16.10;;
1957;SDS011;979;51.076;13.748;2022-09-03T01:28:21;17.00;;;16.40;;
1957;SDS011;979;51.076;13.748;2022-09-03T01:31:01;16.43;;;15.73;;
1957;SDS011;979;51.076;13.748;2022-09-03T01:33:38;15.70;;;15.10;;
1957;SDS011;979;51.076;13.748;2022-09-03T01:36:13;16.30;;;15.60;;
1957;SDS011;979;51.076;13.748;2022-09-03T01:38:51;17.20;;;16.40;;
1957;SDS011;979;51.076;13.748;2022-09-03T01:41:25;16.80;;;16.10;;
1957;SDS011;979;51.076;13.748;2022-09-03T01:44:26;16.20;;;15.70;;
1957;SDS011;979;51.076;13.748;2022-09-03T01:47:08;16.13;;;15.50;;
1957;SDS011;979;51.076;13.748;2022-09-03T01:49:44;16.57;;;15.87;;
1957;SDS011;979;51.076;13.748;2022-09-03T01:52:24;15.57;;;15.07;;
1957;SDS011;979;51.076;13.748;2022-09-03T01:55:05;16.37;;;15.67;;
1957;SDS011;979;51.076;13.748;2022-09-03T01:57:47;16.00;;;15.30;;
1957;SDS011;979;51.076;13.748;2022-09-03T02:00:23;16.30;;;15.60;;
1957;SDS011;979;51.076;13.748;2022-09-03T02:02:53;15.90;;;15.40;;
1957;SDS011;979;51.076;13.748;2022-09-03T02:05:22;15.73;;;15.13;;
1957;SDS011;979;51.076;13.748;2022-09-03T02:07:56;16.33;;;15.60;;
1957;SDS011;979;51.076;13.748;2022-09-03T02:10:27;16.33;;;15.63;;
1957;SDS011;979;51.076;13.748;2022-09-03T02:13:00;16.27;;;15.57;;
1957;SDS011;979;51.076;13.748;2022-09-03T02:15:35;16.80;;;16.10;;
1957;SDS011;979;51.076;13.748;2022-09-03T02:18:07;16.67;;;16.13;;
1957;SDS011;979;51.076;13.748;2022-09-03T02:20:41;16.80;;;16.20;;
1957;SDS011;979;51.076;13.748;2022-09-03T02:23:10;16.83;;;16.17;;
1957;SDS011;979;51.076;13.748;2022-09-03T02:25:38;16.60;;;16.00;;
1957;SDS011;979;51.076;13.748;2022-09-03T02:28:11;16.60;;;16.00;;
1957;SDS011;979;51.076;13.748;2022-09-03T02:30:44;18.30;;;17.60;;
1957;SDS011;979;51.076;13.748;2022-09-03T02:33:13;18.70;;;17.70;;
1957;SDS011;979;51.076;13.748;2022-09-03T02:35:42;17.87;;;16.97;;
1957;SDS011;979;51.076;13.748;2022-09-03T02:38:12;18.20;;;17.50;;
1957;SDS011;979;51.076;13.748;2022-09-03T02:40:44;17.07;;;16.47;;
1957;SDS011;979;51.076;13.748;2022-09-03T02:43:16;17.27;;;16.57;;
1957;SDS011;979;51.076;13.748;2022-09-03T02:45:56;17.80;;;17.10;;
1957;SDS011;979;51.076;13.748;2022-09-03T02:48:28;18.37;;;17.50;;
1957;SDS011;979;51.076;13.748;2022-09-03T02:50:56;18.43;;;17.53;;
1957;SDS011;979;51.076;13.748;2022-09-03T02:53:24;18.43;;;17.63;;
1957;SDS011;979;51.076;13.748;2022-09-03T02:55:56;18.10;;;17.30;;
1957;SDS011;979;51.076;13.748;2022-09-03T02:58:28;17.83;;;17.13;;
1957;SDS011;979;51.076;13.748;2022-09-03T03:00:59;17.17;;;16.50;;
1957;SDS011;979;51.076;13.748;2022-09-03T03:03:27;18.53;;;17.63;;
1957;SDS011;979;51.076;13.748;2022-09-03T03:06:02;18.50;;;17.70;;
1957;SDS011;979;51.076;13.748;2022-09-03T03:08:32;18.07;;;17.40;;
1957;SDS011;979;51.076;13.748;2022-09-03T03:11:00;18.20;;;17.30;;
1957;SDS011;979;51.076;13.748;2022-09-03T03:13:29;17.50;;;16.90;;
1957;SDS011;979;51.076;13.748;2022-09-03T03:16:00;17.90;;;17.07;;
1957;SDS011;979;51.076;13.748;2022-09-03T03:18:31;19.03;;;18.13;;
1957;SDS011;979;51.076;13.748;2022-09-03T03:21:02;18.40;;;17.60;;
1957;SDS011;979;51.076;13.748;2022-09-03T03:23:31;18.47;;;17.57;;
1957;SDS011;979;51.076;13.748;2022-09-03T03:26:00;18.13;;;17.43;;
1957;SDS011;979;51.076;13.748;2022-09-03T03:28:28;19.00;;;17.70;;
1957;SDS011;979;51.076;13.748;2022-09-03T03:31:05;17.80;;;16.90;;
1957;SDS011;979;51.076;13.748;2022-09-03T03:33:34;16.57;;;15.97;;
1957;SDS011;979;51.076;13.748;2022-09-03T03:36:03;16.53;;;16.03;;
1957;SDS011;979;51.076;13.748;2022-09-03T03:38:33;16.90;;;16.03;;
1957;SDS011;979;51.076;13.748;2022-09-03T03:41:05;16.43;;;15.73;;
1957;SDS011;979;51.076;13.748;2022-09-03T03:43:34;17.50;;;16.57;;
1957;SDS011;979;51.076;13.748;2022-09-03T03:46:06;16.73;;;15.90;;
1957;SDS011;979;51.076;13.748;2022-09-03T03:48:36;17.67;;;16.87;;
1957;SDS011;979;51.076;13.748;2022-09-03T03:51:05;16.90;;;16.00;;
1957;SDS011;979;51.076;13.748;2022-09-03T03:53:37;17.00;;;16.30;;
1957;SDS011;979;51.076;13.748;2022-09-03T03:56:06;17.00;;;16.10;;
1957;SDS011;979;51.076;13.748;2022-09-03T03:58:36;17.60;;;16.80;;
1957;SDS011;979;51.076;13.748;2022-09-03T04:01:12;17.00;;;16.30;;
1957;SDS011;979;51.076;13.748;2022-09-03T04:03:41;18.60;;;17.70;;
1957;SDS011;979;51.076;13.748;2022-09-03T04:06:11;17.53;;;16.73;;
1957;SDS011;979;51.076;13.748;2022-09-03T04:08:43;17.97;;;17.07;;
1957;SDS011;979;51.076;13.748;2022-09-03T04:11:15;17.83;;;17.10;;
1957;SDS011;979;51.076;13.748;2022-09-03T04:13:44;17.87;;;16.93;;
1957;SDS011;979;51.076;13.748;2022-09-03T04:16:15;18.27;;;17.33;;
1957;SDS011;979;51.076;13.748;2022-09-03T04:18:44;18.07;;;17.40;;
1957;SDS011;979;51.076;13.748;2022-09-03T04:21:15;18.10;;;17.00;;
1957;SDS011;979;51.076;13.748;2022-09-03T04:23:45;17.27;;;16.47;;
1957;SDS011;979;51.076;13.748;2022-09-03T04:26:15;17.70;;;17.00;;
1957;SDS011;979;51.076;13.748;2022-09-03T04:28:45;17.53;;;16.83;;
1957;SDS011;979;51.076;13.748;2022-09-03T04:31:16;17.57;;;16.97;;
1957;SDS011;979;51.076;13.748;2022-09-03T04:33:47;17.37;;;16.50;;
1957;SDS011;979;51.076;13.748;2022-09-03T04:36:15;19.13;;;18.23;;
1957;SDS011;979;51.076;13.748;2022-09-03T04:38:46;18.23;;;17.33;;
1957;SDS011;979;51.076;13.748;2022-09-03T04:41:16;17.10;;;16.30;;
1957;SDS011;979;51.076;13.748;2022-09-03T04:43:45;18.63;;;17.70;;
1957;SDS011;979;51.076;13.748;2022-09-03T04:46:18;18.40;;;17.70;;
1957;SDS011;979;51.076;13.748;2022-09-03T04:48:48;18.90;;;17.80;;
1957;SDS011;979;51.076;13.748;2022-09-03T04:51:18;18.83;;;17.83;;
1957;SDS011;979;51.076;13.748;2022-09-03T04:53:52;18.83;;;17.83;;
1957;SDS011;979;51.076;13.748;2022-09-03T04:56:23;18.70;;;17.63;;
1957;SDS011;979;51.076;13.748;2022-09-03T04:58:53;17.60;;;17.00;;
1957;SDS011;979;51.076;13.748;2022-09-03T05:01:25;18.30;;;17.50;;
1957;SDS011;979;51.076;13.748;2022-09-03T05:03:58;18.80;;;17.90;;
1957;SDS011;979;51.076;13.748;2022-09-03T05:06:27;18.23;;;17.33;;
1957;SDS011;979;51.076;13.748;2022-09-03T05:08:57;18.50;;;17.80;;
1957;SDS011;979;51.076;13.748;2022-09-03T05:11:25;17.73;;;16.90;;
1957;SDS011;979;51.076;13.748;2022-09-03T05:13:56;17.80;;;16.93;;
1957;SDS011;979;51.076;13.748;2022-09-03T05:16:34;16.90;;;15.97;;
1957;SDS011;979;51.076;13.748;2022-09-03T05:19:04;17.80;;;17.10;;
1957;SDS011;979;51.076;13.748;2022-09-03T05:21:33;17.50;;;16.60;;
1957;SDS011;979;51.076;13.748;2022-09-03T05:24:02;16.87;;;16.27;;
1957;SDS011;979;51.076;13.748;2022-09-03T05:26:32;16.57;;;15.90;;
1957;SDS011;979;51.076;13.748;2022-09-03T05:29:06;17.77;;;16.90;;
1957;SDS011;979;51.076;13.748;2022-09-03T05:31:36;16.27;;;15.70;;
1957;SDS011;979;51.076;13.748;2022-09-03T05:34:06;17.27;;;16.57;;
1957;SDS011;979;51.076;13.748;2022-09-03T05:36:41;16.63;;;15.93;;
1957;SDS011;979;51.076;13.748;2022-09-03T05:39:10;15.63;;;15.13;;
1957;SDS011;979;51.076;13.748;2022-09-03T05:41:41;15.53;;;14.93;;
1957;SDS011;979;51.076;13.748;2022-09-03T05:44:09;15.50;;;15.00;;
1957;SDS011;979;51.076;13.748;2022-09-03T05:46:39;16.43;;;15.73;;
1957;SDS011;979;51.076;13.748;2022-09-03T05:49:10;15.63;;;15.03;;
1957;SDS011;979;51.076;13.748;2022-09-03T05:51:38;15.60;;;15.10;;
1957;SDS011;979;51.076;13.748;2022-09-03T05:54:06;14.80;;;14.40;;
1957;SDS011;979;51.076;13.748;2022-09-03T05:56:35;15.80;;;15.20;;
1957;SDS011;979;51.076;13.748;2022-09-03T05:59:07;15.73;;;15.23;;
1957;SDS011;979;51.076;13.748;2022-09-03T06:01:36;15.80;;;15.20;;
1957;SDS011;979;51.076;13.748;2022-09-03T06:04:17;15.97;;;15.43;;
1957;SDS011;979;51.076;13.748;2022-09-03T06:06:47;16.70;;;16.00;;
1957;SDS011;979;51.076;13.748;2022-09-03T06:09:17;16.13;;;15.57;;
1957;SDS011;979;51.076;13.748;2022-09-03T06:11:48;16.73;;;15.97;;
1957;SDS011;979;51.076;13.748;2022-09-03T06:14:18;17.83;;;17.03;;
1957;SDS011;979;51.076;13.748;2022-09-03T06:16:48;16.10;;;15.50;;
1957;SDS011;979;51.076;13.748;2022-09-03T06:19:18;15.60;;;14.80;;
1957;SDS011;979;51.076;13.748;2022-09-03T06:21:47;15.33;;;14.73;;
1957;SDS011;979;51.076;13.748;2022-09-03T06:24:16;15.30;;;14.80;;
1957;SDS011;979;51.076;13.748;2022-09-03T06:26:46;15.30;;;14.80;;
1957;SDS011;979;51.076;13.748;2022-09-03T06:29:14;16.20;;;15.50;;
1957;SDS011;979;51.076;13.748;2022-09-03T06:31:45;15.07;;;14.47;;
1957;SDS011;979;51.076;13.748;2022-09-03T06:34:17;15.60;;;15.10;;
1957;SDS011;979;51.076;13.748;2022-09-03T06:36:47;15.40;;;14.87;;
1957;SDS011;979;51.076;13.748;2022-09-03T06:39:19;16.13;;;15.63;;
1957;SDS011;979;51.076;13.748;2022-09-03T06:41:47;15.70;;;15.10;;
1957;SDS011;979;51.076;13.748;2022-09-03T06:44:24;16.40;;;15.60;;
1957;SDS011;979;51.076;13.748;2022-09-03T06:46:52;15.73;;;15.10;;
1957;SDS011;979;51.076;13.748;2022-09-03T06:49:23;16.43;;;15.63;;
1957;SDS011;979;51.076;13.748;2022-09-03T06:51:52;15.77;;;15.17;;
1957;SDS011;979;51.076;13.748;2022-09-03T06:54:20;15.40;;;14.87;;
1957;SDS011;979;51.076;13.748;2022-09-03T06:56:52;15.60;;;14.80;;
1957;SDS011;979;51.076;13.748;2022-09-03T06:59:20;14.73;;;14.30;;
1957;SDS011;979;51.076;13.748;2022-09-03T07:01:48;15.13;;;14.63;;
1957;SDS011;979;51.076;13.748;2022-09-03T07:04:16;15.00;;;14.50;;
1957;SDS011;979;51.076;13.748;2022-09-03T07:06:47;15.00;;;14.50;;
1957;SDS011;979;51.076;13.748;2022-09-03T07:09:15;14.27;;;13.70;;
1957;SDS011;979;51.076;13.748;2022-09-03T07:11:44;15.20;;;14.70;;
1957;SDS011;979;51.076;13.748;2022-09-03T07:14:16;15.73;;;15.13;;
1957;SDS011;979;51.076;13.748;2022-09-03T07:16:48;14.97;;;14.47;;
1957;SDS011;979;51.076;13.748;2022-09-03T07:19:17;14.87;;;14.37;;
1957;SDS011;979;51.076;13.748;2022-09-03T07:21:46;14.83;;;14.33;;
1957;SDS011;979;51.076;13.748;2022-09-03T07:24:16;14.97;;;14.43;;
1957;SDS011;979;51.076;13.748;2022-09-03T07:26:47;15.10;;;14.53;;
1957;SDS011;979;51.076;13.748;2022-09-03T07:29:16;14.20;;;13.70;;
1957;SDS011;979;51.076;13.748;2022-09-03T07:31:47;15.57;;;15.07;;
1957;SDS011;979;51.076;13.748;2022-09-03T07:34:18;15.53;;;14.80;;
1957;SDS011;979;51.076;13.748;2022-09-03T07:36:59;15.43;;;14.83;;
1957;SDS011;979;51.076;13.748;2022-09-03T07:39:27;15.00;;;14.50;;
1957;SDS011;979;51.076;13.748;2022-09-03T07:41:56;14.87;;;14.27;;
1957;SDS011;979;51.076;13.748;2022-09-03T07:44:24;15.63;;;15.03;;
1957;SDS011;979;51.076;13.748;2022-09-03T07:46:53;15.90;;;15.30;;
1957;SDS011;979;51.076;13.748;2022-09-03T07:49:24;13.83;;;13.40;;
1957;SDS011;979;51.076;13.748;2022-09-03T07:51:53;14.30;;;13.70;;
1957;SDS011;979;51.076;13.748;2022-09-03T07:54:25;15.13;;;14.63;;
1957;SDS011;979;51.076;13.748;2022-09-03T07:56:56;15.60;;;15.10;;
1957;SDS011;979;51.076;13.748;2022-09-03T07:59:24;15.40;;;14.90;;
1957;SDS011;979;51.076;13.748;2022-09-03T08:01:55;16.20;;;15.40;;
1957;SDS011;979;51.076;13.748;2022-09-03T08:04:25;15.50;;;15.00;;
1957;SDS011;979;51.076;13.748;2022-09-03T08:06:56;15.87;;;15.17;;
1957;SDS011;979;51.076;13.748;2022-09-03T08:09:29;15.50;;;15.00;;
1957;SDS011;979;51.076;13.748;2022-09-03T08:11:58;15.60;;;15.10;;
1957;SDS011;979;51.076;13.748;2022-09-03T08:14:31;15.80;;;15.20;;
1957;SDS011;979;51.076;13.748;2022-09-03T08:16:59;13.93;;;13.43;;
1957;SDS011;979;51.076;13.748;2022-09-03T08:19:31;14.63;;;14.23;;
1957;SDS011;979;51.076;13.748;2022-09-03T08:22:00;15.30;;;14.70;;
1957;SDS011;979;51.076;13.748;2022-09-03T08:24:36;15.20;;;14.60;;
1957;SDS011;979;51.076;13.748;2022-09-03T08:27:07;15.53;;;14.73;;
1957;SDS011;979;51.076;13.748;2022-09-03T08:29:35;15.13;;;14.60;;
1957;SDS011;979;51.076;13.748;2022-09-03T08:32:04;14.67;;;14.17;;
1957;SDS011;979;51.076;13.748;2022-09-03T08:34:33;14.93;;;14.43;;
1957;SDS011;979;51.076;13.748;2022-09-03T08:37:10;15.27;;;14.77;;
1957;SDS011;979;51.076;13.748;2022-09-03T08:39:42;14.30;;;13.80;;
1957;SDS011;979;51.076;13.748;2022-09-03T08:42:27;14.60;;;14.10;;
1957;SDS011;979;51.076;13.748;2022-09-03T08:45:12;15.00;;;14.50;;
1957;SDS011;979;51.076;13.748;2022-09-03T08:47:48;14.50;;;13.90;;
1957;SDS011;979;51.076;13.748;2022-09-03T08:50:22;13.53;;;12.93;;
1957;SDS011;979;51.076;13.748;2022-09-03T08:52:56;14.50;;;14.00;;
1957;SDS011;979;51.076;13.748;2022-09-03T08:55:36;14.17;;;13.77;;
1957;SDS011;979;51.076;13.748;2022-09-03T08:58:10;14.87;;;14.37;;
1957;SDS011;979;51.076;13.748;2022-09-03T09:00:41;14.50;;;14.00;;
1957;SDS011;979;51.076;13.748;2022-09-03T09:03:33;14.77;;;14.03;;
1957;SDS011;979;51.076;13.748;2022-09-03T09:06:15;14.17;;;13.73;;
1957;SDS011;979;51.076;13.748;2022-09-03T09:08:58;13.53;;;13.13;;
1957;SDS011;979;51.076;13.748;2022-09-03T09:11:37;14.50;;;14.00;;
1957;SDS011;979;51.076;13.748;2022-09-03T09:14:14;14.90;;;14.40;;
1957;SDS011;979;51.076;13.748;2022-09-03T09:16:46;16.07;;;15.27;;
1957;SDS011;979;51.076;13.748;2022-09-03T09:19:35;13.93;;;13.43;;
1957;SDS011;979;51.076;13.748;2022-09-03T09:22:09;15.67;;;14.70;;
1957;SDS011;979;51.076;13.748;2022-09-03T09:24:41;15.40;;;14.90;;
1957;SDS011;979;51.076;13.748;2022-09-03T09:27:15;14.87;;;13.97;;
1957;SDS011;979;51.076;13.748;2022-09-03T09:29:45;15.27;;;14.87;;
1957;SDS011;979;51.076;13.748;2022-09-03T09:32:17;14.40;;;14.00;;
1957;SDS011;979;51.076;13.748;2022-09-03T09:34:47;15.30;;;14.67;;
1957;SDS011;979;51.076;13.748;2022-09-03T09:37:18;15.97;;;15.47;;
1957;SDS011;979;51.076;13.748;2022-09-03T09:39:54;14.87;;;14.37;;
1957;SDS011;979;51.076;13.748;2022-09-03T09:42:26;14.80;;;14.20;;
1957;SDS011;979;51.076;13.748;2022-09-03T09:45:07;15.10;;;14.70;;
1957;SDS011;979;51.076;13.748;2022-09-03T09:47:37;15.40;;;14.80;;
1957;SDS011;979;51.076;13.748;2022-09-03T09:50:15;15.30;;;14.70;;
1957;SDS011;979;51.076;13.748;2022-09-03T09:52:58;14.17;;;13.67;;
1957;SDS011;979;51.076;13.748;2022-09-03T09:55:30;15.57;;;14.87;;
1957;SDS011;979;51.076;13.748;2022-09-03T09:58:05;16.00;;;15.40;;
1957;SDS011;979;51.076;13.748;2022-09-03T10:00:40;14.90;;;14.50;;
1957;SDS011;979;51.076;13.748;2022-09-03T10:03:08;15.00;;;14.50;;
1957;SDS011;979;51.076;13.748;2022-09-03T10:05:39;15.60;;;15.10;;
1957;SDS011;979;51.076;13.748;2022-09-03T10:08:17;15.20;;;14.70;;
1957;SDS011;979;51.076;13.748;2022-09-03T10:10:48;15.97;;;15.20;;
1957;SDS011;979;51.076;13.748;2022-09-03T10:13:20;15.83;;;15.13;;
1957;SDS011;979;51.076;13.748;2022-09-03T10:15:57;15.43;;;14.93;;
1957;SDS011;979;51.076;13.748;2022-09-03T10:18:34;15.60;;;14.80;;
1957;SDS011;979;51.076;13.748;2022-09-03T10:21:14;14.43;;;14.00;;
1957;SDS011;979;51.076;13.748;2022-09-03T10:23:48;14.70;;;14.20;;
1957;SDS011;979;51.076;13.748;2022-09-03T10:26:35;15.17;;;14.67;;
1957;SDS011;979;51.076;13.748;2022-09-03T10:29:14;15.23;;;14.70;;
1957;SDS011;979;51.076;13.748;2022-09-03T10:31:52;14.37;;;13.87;;
1957;SDS011;979;51.076;13.748;2022-09-03T10:34:37;14.43;;;13.93;;
1957;SDS011;979;51.076;13.748;2022-09-03T10:37:17;14.53;;;14.00;;
1957;SDS011;979;51.076;13.748;2022-09-03T10:39:52;14.60;;;14.10;;
1957;SDS011;979;51.076;13.748;2022-09-03T10:42:40;15.00;;;14.50;;
1957;SDS011;979;51.076;13.748;2022-09-03T10:45:22;14.50;;;14.10;;
1957;SDS011;979;51.076;13.748;2022-09-03T10:48:12;14.80;;;14.40;;
1957;SDS011;979;51.076;13.748;2022-09-03T10:50:58;15.40;;;15.00;;
1957;SDS011;979;51.076;13.748;2022-09-03T10:53:38;15.40;;;15.00;;
1957;SDS011;979;51.076;13.748;2022-09-03T10:56:20;14.83;;;14.33;;
1957;SDS011;979;51.076;13.748;2022-09-03T10:59:12;15.50;;;15.00;;
1957;SDS011;979;51.076;13.748;2022-09-03T11:02:00;15.03;;;14.53;;
1957;SDS011;979;51.076;13.748;2022-09-03T11:04:44;14.40;;;14.00;;
1957;SDS011;979;51.076;13.748;2022-09-03T11:07:21;14.97;;;14.47;;
1957;SDS011;979;51.076;13.748;2022-09-03T11:09:55;15.30;;;14.80;;
1957;SDS011;979;51.076;13.748;2022-09-03T11:12:30;14.63;;;14.23;;
1957;SDS011;979;51.076;13.748;2022-09-03T11:15:02;15.30;;;14.90;;
1957;SDS011;979;51.076;13.748;2022-09-03T11:17:37;15.77;;;15.17;;
1957;SDS011;979;51.076;13.748;2022-09-03T11:20:10;15.17;;;14.63;;
1957;SDS011;979;51.076;13.748;2022-09-03T11:22:46;14.20;;;13.80;;
1957;SDS011;979;51.076;13.748;2022-09-03T11:25:20;15.70;;;15.07;;
1957;SDS011;979;51.076;13.748;2022-09-03T11:27:55;15.07;;;14.67;;
1957;SDS011;979;51.076;13.748;2022-09-03T11:30:37;16.33;;;15.83;;
1957;SDS011;979;51.076;13.748;2022-09-03T11:33:18;15.90;;;15.40;;
1957;SDS011;979;51.076;13.748;2022-09-03T11:35:54;16.03;;;15.53;;
1957;SDS011;979;51.076;13.748;2022-09-03T11:38:26;15.40;;;14.93;;
1957;SDS011;979;51.076;13.748;2022-09-03T11:40:59;16.70;;;16.20;;
1957;SDS011;979;51.076;13.748;2022-09-03T11:43:30;16.40;;;15.90;;
1957;SDS011;979;51.076;13.748;2022-09-03T11:46:01;16.93;;;16.33;;
1957;SDS011;979;51.076;13.748;2022-09-03T11:48:37;16.47;;;15.87;;
1957;SDS011;979;51.076;13.748;2022-09-03T11:51:18;16.00;;;15.43;;
1957;SDS011;979;51.076;13.748;2022-09-03T11:53:52;16.07;;;15.57;;
1957;SDS011;979;51.076;13.748;2022-09-03T11:56:25;16.27;;;15.77;;
1957;SDS011;979;51.076;13.748;2022-09-03T11:59:02;16.77;;;16.10;;
1957;SDS011;979;51.076;13.748;2022-09-03T12:01:33;16.40;;;15.90;;
1957;SDS011;979;51.076;13.748;2022-09-03T12:04:05;16.17;;;15.57;;
1957;SDS011;979;51.076;13.748;2022-09-03T12:06:42;15.27;;;14.77;;
1957;SDS011;979;51.076;13.748;2022-09-03T12:09:33;15.60;;;15.10;;
1957;SDS011;979;51.076;13.748;2022-09-03T12:12:26;16.60;;;15.80;;
1957;SDS011;979;51.076;13.748;2022-09-03T12:15:08;14.70;;;14.27;;
1957;SDS011;979;51.076;13.748;2022-09-03T12:17:50;15.77;;;15.27;;
1957;SDS011;979;51.076;13.748;2022-09-03T12:20:35;15.73;;;15.30;;
1957;SDS011;979;51.076;13.748;2022-09-03T12:23:08;15.23;;;14.73;;
1957;SDS011;979;51.076;13.748;2022-09-03T12:25:43;16.27;;;15.77;;
1957;SDS011;979;51.076;13.748;2022-09-03T12:28:16;15.67;;;15.20;;
1957;SDS011;979;51.076;13.748;2022-09-03T12:30:48;16.20;;;15.50;;
1957;SDS011;979;51.076;13.748;2022-09-03T12:33:20;15.07;;;14.67;;
1957;SDS011;979;51.076;13.748;2022-09-03T12:35:57;15.30;;;14.80;;
1957;SDS011;979;51.076;13.748;2022-09-03T12:38:27;14.43;;;13.93;;
1957;SDS011;979;51.076;13.748;2022-09-03T12:41:19;15.00;;;14.50;;
1957;SDS011;979;51.076;13.748;2022-09-03T12:43:53;15.20;;;14.70;;
1957;SDS011;979;51.076;13.748;2022-09-03T12:46:23;14.50;;;14.00;;
1957;SDS011;979;51.076;13.748;2022-09-03T12:48:59;15.93;;;15.40;;
1957;SDS011;979;51.076;13.748;2022-09-03T12:51:56;15.60;;;15.10;;
1957;SDS011;979;51.076;13.748;2022-09-03T12:54:31;15.20;;;14.80;;
1957;SDS011;979;51.076;13.748;2022-09-03T12:57:01;14.27;;;13.77;;
1957;SDS011;979;51.076;13.748;2022-09-03T12:59:32;13.73;;;13.33;;
1957;SDS011;979;51.076;13.748;2022-09-03T13:02:11;14.43;;;13.90;;
1957;SDS011;979;51.076;13.748;2022-09-03T13:04:44;14.73;;;14.23;;
1957;SDS011;979;51.076;13.748;2022-09-03T13:07:19;15.23;;;14.63;;
1957;SDS011;979;51.076;13.748;2022-09-03T13:09:50;15.20;;;14.73;;
1957;SDS011;979;51.076;13.748;2022-09-03T13:12:20;14.77;;;13.90;;
1957;SDS011;979;51.076;13.748;2022-09-03T13:14:51;15.00;;;14.57;;
1957;SDS011;979;51.076;13.748;2022-09-03T13:17:28;14.93;;;14.53;;
1957;SDS011;979;51.076;13.748;2022-09-03T13:20:11;14.70;;;14.30;;
1957;SDS011;979;51.076;13.748;2022-09-03T13:22:57;14.20;;;13.60;;
1957;SDS011;979;51.076;13.748;2022-09-03T13:25:52;14.30;;;13.90;;
1957;SDS011;979;51.076;13.748;2022-09-03T13:28:35;16.37;;;15.77;;
1957;SDS011;979;51.076;13.748;2022-09-03T13:31:10;16.00;;;15.50;;
1957;SDS011;979;51.076;13.748;2022-09-03T13:33:54;15.33;;;14.90;;
1957;SDS011;979;51.076;13.748;2022-09-03T13:36:27;15.80;;;15.40;;
1957;SDS011;979;51.076;13.748;2022-09-03T13:39:02;14.60;;;14.10;;
1957;SDS011;979;51.076;13.748;2022-09-03T13:41:38;14.50;;;14.10;;
1957;SDS011;979;51.076;13.748;2022-09-03T13:44:19;14.10;;;13.70;;
1957;SDS011;979;51.076;13.748;2022-09-03T13:46:52;14.40;;;14.00;;
1957;SDS011;979;51.076;13.748;2022-09-03T13:49:26;14.37;;;13.97;;
1957;SDS011;979;51.076;13.748;2022-09-03T13:52:20;14.57;;;14.17;;
1957;SDS011;979;51.076;13.748;2022-09-03T13:54:59;15.50;;;14.90;;
1957;SDS011;979;51.076;13.748;2022-09-03T13:57:34;16.33;;;15.83;;
1957;SDS011;979;51.076;13.748;2022-09-03T14:00:08;15.17;;;14.67;;
1957;SDS011;979;51.076;13.748;2022-09-03T14:02:45;14.50;;;14.00;;
1957;SDS011;979;51.076;13.748;2022-09-03T14:05:22;13.50;;;13.10;;
1957;SDS011;979;51.076;13.748;2022-09-03T14:08:07;14.77;;;14.13;;
1957;SDS011;979;51.076;13.748;2022-09-03T14:10:53;15.30;;;14.70;;
1957;SDS011;979;51.076;13.748;2022-09-03T14:13:35;14.63;;;14.13;;
1957;SDS011;979;51.076;13.748;2022-09-03T14:16:14;13.93;;;13.53;;
1957;SDS011;979;51.076;13.748;2022-09-03T14:18:53;14.97;;;14.47;;
1957;SDS011;979;51.076;13.748;2022-09-03T14:21:29;14.30;;;13.90;;
1957;SDS011;979;51.076;13.748;2022-09-03T14:24:03;15.23;;;14.53;;
1957;SDS011;979;51.076;13.748;2022-09-03T14:26:49;14.43;;;14.03;;
1957;SDS011;979;51.076;13.748;2022-09-03T14:29:19;13.63;;;13.23;;
1957;SDS011;979;51.076;13.748;2022-09-03T14:31:57;14.30;;;13.80;;
1957;SDS011;979;51.076;13.748;2022-09-03T14:34:36;13.90;;;13.50;;
1957;SDS011;979;51.076;13.748;2022-09-03T14:37:15;14.10;;;13.60;;
1957;SDS011;979;51.076;13.748;2022-09-03T14:39:58;14.40;;;13.90;;
1957;SDS011;979;51.076;13.748;2022-09-03T14:42:54;14.50;;;13.53;;
1957;SDS011;979;51.076;13.748;2022-09-03T14:45:49;14.00;;;13.60;;
1957;SDS011;979;51.076;13.748;2022-09-03T14:48:48;14.50;;;14.00;;
1957;SDS011;979;51.076;13.748;2022-09-03T14:51:38;15.17;;;14.50;;
1957;SDS011;979;51.076;13.748;2022-09-03T14:57:41;13.90;;;13.50;;
1957;SDS011;979;51.076;13.748;2022-09-03T15:00:30;14.30;;;13.73;;
1957;SDS011;979;51.076;13.748;2022-09-03T15:06:14;14.80;;;14.30;;
1957;SDS011;979;51.076;13.748;2022-09-03T15:09:13;12.67;;;12.33;;
1957;SDS011;979;51.076;13.748;2022-09-03T15:11:47;13.70;;;13.20;;
1957;SDS011;979;51.076;13.748;2022-09-03T15:14:25;14.63;;;13.97;;
1957;SDS011;979;51.076;13.748;2022-09-03T15:17:00;14.20;;;13.70;;
1957;SDS011;979;51.076;13.748;2022-09-03T15:19:52;14.07;;;13.60;;
1957;SDS011;979;51.076;13.748;2022-09-03T15:25:47;14.57;;;14.07;;
1957;SDS011;979;51.076;13.748;2022-09-03T15:28:29;15.00;;;14.50;;
1957;SDS011;979;51.076;13.748;2022-09-03T15:31:09;14.67;;;14.13;;
1957;SDS011;979;51.076;13.748;2022-09-03T15:33:45;15.23;;;14.73;;
1957;SDS011;979;51.076;13.748;2022-09-03T15:36:19;15.40;;;14.90;;
1957;SDS011;979;51.076;13.748;2022-09-03T15:38:54;14.63;;;14.23;;
1957;SDS011;979;51.076;13.748;2022-09-03T15:41:33;14.20;;;13.80;;
1957;SDS011;979;51.076;13.748;2022-09-03T15:44:11;14.60;;;14.20;;
1957;SDS011;979;51.076;13.748;2022-09-03T15:46:55;13.87;;;13.47;;